Terminal Aerodrome Forecast
Issued by NWS

Home | Current Version | Previous Version | Text Only | Print | Product List | Glossary On
Versions: 1 2 3 4 5 6 7 8 9 10 11 12 13 14 15 16
000
FTAK31 PANC 022332
TAFADU
TAF
PADU 022332Z 0300/0324 22007KT 6SM -RA BR SCT015 OVC025
      TEMPO 0300/0304 BKN015
     FM031200 22007KT P6SM -SHRA SCT025 BKN035=

USA.gov is the U.S. government's official web portal to all federal, state and local government web resources and services.